Time;durP1;ratioP1;P1;durP2;ratioP2;P2;SDS_P1;SDS_P2;PMS_P1;PMS_P2;Temp;Humidity;BMP_temperature;BMP_pressure;BME280_temperature;BME280_humidity;BME280_pressure;Samples;Min_cycle;Max_cycle;Signal;HPM_P1;HPM_P2
2022/05/12 00:01:51;;;;;;;;;5.75;1.75;;;;;18.59;49.14;101078.38;5025763;28;68872;-61
2022/05/12 00:04:17;;;;;;;;;3.25;1.25;;;;;18.55;49.94;101074.16;5034129;28;45315;-62
2022/05/12 00:06:42;;;;;;;;;6.75;3.25;;;;;18.50;49.90;101064.75;5038269;28;67747;-61
2022/05/12 00:09:07;;;;;;;;;2.75;2.00;;;;;18.54;48.94;101076.91;5039274;28;71673;-60
2022/05/12 00:11:33;;;;;;;;;3.25;1.75;;;;;18.50;50.08;101075.34;5027773;28;66136;-60
2022/05/12 00:13:58;;;;;;;;;3.50;1.75;;;;;18.46;50.13;101077.31;5031209;28;61374;-61
2022/05/12 00:16:23;;;;;;;;;5.75;3.00;;;;;18.44;49.78;101076.53;5024972;28;66276;-60
2022/05/12 00:18:49;;;;;;;;;4.00;3.00;;;;;18.43;50.25;101077.47;5032293;28;67860;-59
2022/05/12 00:21:14;;;;;;;;;2.25;1.75;;;;;18.40;50.18;101077.66;5030543;28;45414;-59
2022/05/12 00:23:40;;;;;;;;;3.00;2.00;;;;;18.40;50.58;101085.59;5028460;28;53297;-58
2022/05/12 00:26:05;;;;;;;;;5.00;2.50;;;;;18.39;50.47;101097.97;5031950;28;68296;-61
2022/05/12 00:28:30;;;;;;;;;3.75;3.00;;;;;18.39;50.58;101097.13;5035730;28;46287;-61
2022/05/12 00:30:57;;;;;;;;;4.50;3.50;;;;;18.35;50.60;101095.59;5025949;28;45209;-61
2022/05/12 00:33:26;;;;;;;;;5.25;3.00;;;;;18.30;50.04;101095.84;5022671;28;45273;-61
2022/05/12 00:35:51;;;;;;;;;2.00;2.00;;;;;18.29;50.31;101103.84;5022468;28;45301;-61
2022/05/12 00:38:17;;;;;;;;;5.25;1.50;;;;;18.23;50.81;101097.09;5040490;28;46112;-60
2022/05/12 00:40:44;;;;;;;;;2.75;1.75;;;;;18.29;50.73;101106.50;5036306;28;64560;-61
2022/05/12 00:43:32;;;;;;;;;4.50;3.00;;;;;18.32;50.54;101109.84;5025904;28;45142;-60
2022/05/12 00:45:57;;;;;;;;;5.50;3.00;;;;;18.33;50.35;101116.88;5025349;28;46132;-61
2022/05/12 00:48:23;;;;;;;;;4.25;3.00;;;;;18.31;50.53;101110.81;5032075;28;71522;-61
2022/05/12 00:50:48;;;;;;;;;6.00;3.00;;;;;18.34;50.27;101117.72;5028424;28;66326;-61
2022/05/12 00:53:15;;;;;;;;;11.25;4.00;;;;;18.27;50.99;101117.19;5026992;28;64648;-61
2022/05/12 00:55:42;;;;;;;;;6.00;3.75;;;;;18.31;50.81;101125.81;5021648;28;45396;-61
2022/05/12 00:58:11;;;;;;;;;6.75;3.00;;;;;18.31;50.45;101123.16;5034784;28;45360;-61
2022/05/12 01:00:37;;;;;;;;;5.75;3.25;;;;;18.30;50.29;101132.94;5040222;28;45233;-61
2022/05/12 01:03:09;;;;;;;;;6.50;3.00;;;;;18.26;50.66;101126.09;5033601;28;45525;-61
2022/05/12 01:05:35;;;;;;;;;6.50;3.00;;;;;18.24;50.51;101137.69;5031053;28;45436;-61
2022/05/12 01:08:01;;;;;;;;;2.75;2.75;;;;;18.21;50.82;101128.97;5021686;28;46074;-61
2022/05/12 01:10:27;;;;;;;;;4.75;3.75;;;;;18.18;50.01;101129.16;5022132;28;45745;-61
2022/05/12 01:12:52;;;;;;;;;5.25;2.75;;;;;18.18;50.66;101136.22;5034106;28;64412;-61
2022/05/12 01:15:21;;;;;;;;;6.75;2.75;;;;;18.15;50.75;101141.66;5028914;28;68412;-61
2022/05/12 01:17:47;;;;;;;;;7.00;4.50;;;;;18.11;50.81;101145.44;5025762;28;45406;-61
2022/05/12 01:20:13;;;;;;;;;8.00;4.50;;;;;18.08;49.81;101143.81;5035773;28;46799;-62
2022/05/12 01:22:54;;;;;;;;;4.50;3.75;;;;;18.08;50.50;101148.22;5021115;28;46864;-62
2022/05/12 01:25:23;;;;;;;;;2.00;2.00;;;;;18.06;50.30;101147.44;5032056;28;45337;-62
2022/05/12 01:27:48;;;;;;;;;3.75;3.50;;;;;18.05;50.98;101148.41;5021132;28;46436;-62
2022/05/12 01:30:16;;;;;;;;;6.25;4.75;;;;;18.01;50.68;101150.34;5026333;28;45268;-63
2022/05/12 01:32:44;;;;;;;;;6.25;4.50;;;;;17.99;50.48;101160.19;5032504;28;45234;-62
2022/05/12 01:35:10;;;;;;;;;9.00;4.00;;;;;17.96;50.69;101152.38;5027100;28;45466;-62
2022/05/12 01:37:40;;;;;;;;;6.00;2.75;;;;;17.96;50.30;101149.75;5020291;28;46196;-62
2022/05/12 01:40:07;;;;;;;;;5.00;5.00;;;;;17.97;50.23;101152.31;5020344;28;45433;-62
2022/05/12 01:42:32;;;;;;;;;3.00;3.00;;;;;17.94;50.35;101144.50;5020792;28;45249;-62
2022/05/12 01:44:58;;;;;;;;;5.50;4.75;;;;;17.91;50.32;101152.59;5019388;28;67689;-62
2022/05/12 01:47:23;;;;;;;;;4.50;3.00;;;;;17.85;50.67;101160.84;5024400;28;45431;-63
2022/05/12 01:49:48;;;;;;;;;5.25;3.50;;;;;17.79;50.47;101161.97;5035741;28;68570;-63
2022/05/12 01:52:14;;;;;;;;;8.25;4.75;;;;;17.71;50.48;101156.25;5025925;28;61317;-64
2022/05/12 01:54:39;;;;;;;;;7.25;5.00;;;;;17.70;50.92;101165.09;5031148;28;45667;-64
2022/05/12 01:57:05;;;;;;;;;7.50;5.00;;;;;17.66;51.11;101168.84;5019051;28;68644;-63
2022/05/12 01:59:31;;;;;;;;;9.75;5.25;;;;;17.63;50.78;101163.69;5035883;28;45427;-63
2022/05/12 02:01:56;;;;;;;;;5.00;4.25;;;;;17.69;50.71;101175.75;5033131;28;45525;-64
2022/05/12 02:04:21;;;;;;;;;5.50;4.50;;;;;17.70;51.18;101185.44;5035610;28;67112;-64
2022/05/12 02:06:47;;;;;;;;;8.00;6.75;;;;;17.69;51.36;101181.94;5027798;28;66662;-64
2022/05/12 02:09:13;;;;;;;;;4.25;4.25;;;;;17.61;51.14;101179.66;5029814;28;65456;-64
2022/05/12 02:11:38;;;;;;;;;4.50;4.00;;;;;17.68;50.73;101187.31;5027322;28;45523;-64
2022/05/12 02:14:05;;;;;;;;;8.25;5.00;;;;;17.67;50.26;101193.50;5020652;28;60567;-64
2022/05/12 02:16:31;;;;;;;;;3.00;2.75;;;;;17.67;49.84;101198.81;5030795;28;45356;-64
2022/05/12 02:18:57;;;;;;;;;1.00;1.00;;;;;17.62;49.49;101204.34;5028145;28;45202;-64
2022/05/12 02:21:22;;;;;;;;;3.00;2.75;;;;;17.58;49.51;101200.13;5020238;28;55827;-64
2022/05/12 02:23:47;;;;;;;;;3.50;1.00;;;;;17.53;49.23;101200.34;5022689;28;68808;-64
2022/05/12 02:26:14;;;;;;;;;1.25;0.00;;;;;17.50;49.59;101205.78;5031318;28;70742;-62
2022/05/12 02:28:39;;;;;;;;;2.00;2.00;;;;;17.46;49.33;101210.38;5027722;28;45552;-61
2022/05/12 02:31:05;;;;;;;;;2.25;1.50;;;;;17.45;49.16;101210.44;5023719;28;45574;-62
2022/05/12 02:33:30;;;;;;;;;4.00;2.25;;;;;17.41;49.33;101212.38;5021604;28;45328;-62
2022/05/12 02:35:56;;;;;;;;;3.50;1.75;;;;;17.41;48.93;101220.31;5021333;28;45337;-62
2022/05/12 02:38:22;;;;;;;;;3.00;0.50;;;;;17.39;49.12;101221.34;5019796;28;45315;-62
2022/05/12 02:40:47;;;;;;;;;3.00;1.50;;;;;17.36;49.11;101222.31;5025547;28;45403;-62
2022/05/12 02:43:25;;;;;;;;;1.75;0.50;;;;;17.34;48.76;101218.06;5029785;28;51997;-62
2022/05/12 02:45:59;;;;;;;;;3.50;1.00;;;;;17.33;48.73;101226.91;5033594;28;45422;-63
2022/05/12 02:48:28;;;;;;;;;2.25;1.25;;;;;17.30;48.75;101232.34;5025333;28;45510;-61
2022/05/12 02:50:53;;;;;;;;;2.00;2.00;;;;;17.24;48.78;101229.03;5039622;28;45466;-61
2022/05/12 02:53:19;;;;;;;;;3.25;1.00;;;;;17.21;48.74;101236.25;5037933;28;45296;-61
2022/05/12 02:55:44;;;;;;;;;5.50;1.00;;;;;17.17;48.81;101230.25;5020957;28;45304;-62
2022/05/12 02:58:11;;;;;;;;;5.75;2.00;;;;;17.20;48.64;101231.91;5038972;28;45359;-64
2022/05/12 03:00:36;;;;;;;;;4.25;2.00;;;;;17.17;48.41;101232.06;5021226;28;45344;-64
2022/05/12 03:03:02;;;;;;;;;3.25;2.25;;;;;17.13;48.68;101236.63;5032246;28;45387;-63
2022/05/12 03:05:27;;;;;;;;;3.75;2.00;;;;;17.08;48.72;101239.47;5026444;28;46924;-63
2022/05/12 03:07:53;;;;;;;;;1.25;1.25;;;;;17.01;49.03;101245.13;5019722;28;45327;-61
2022/05/12 03:10:19;;;;;;;;;5.00;1.75;;;;;17.02;49.04;101244.22;5020252;28;45566;-61
2022/05/12 03:12:45;;;;;;;;;5.00;2.75;;;;;17.00;48.89;101244.28;5020581;28;45239;-62
2022/05/12 03:15:12;;;;;;;;;6.25;4.00;;;;;17.03;48.96;101251.19;5029764;28;66413;-62
2022/05/12 03:17:38;;;;;;;;;0.50;0.00;;;;;17.01;48.75;101251.25;5021733;28;45332;-61
2022/05/12 03:20:05;;;;;;;;;4.50;3.00;;;;;17.00;49.05;101254.84;5029490;28;45404;-61
2022/05/12 03:22:30;;;;;;;;;3.00;3.00;;;;;16.99;49.32;101245.19;5034287;28;45376;-61
2022/05/12 03:24:55;;;;;;;;;2.25;2.00;;;;;16.98;49.49;101254.06;5031658;28;45985;-61
2022/05/12 03:27:21;;;;;;;;;3.25;1.50;;;;;16.95;49.32;101246.28;5024088;28;59996;-61
2022/05/12 03:29:46;;;;;;;;;1.00;1.00;;;;;16.94;49.55;101251.63;5026391;28;45319;-62
2022/05/12 03:32:12;;;;;;;;;4.25;2.75;;;;;16.92;49.72;101248.19;5032700;28;45337;-60
2022/05/12 03:34:41;;;;;;;;;2.00;1.00;;;;;16.91;49.53;101259.69;5021141;28;45333;-60
2022/05/12 03:37:08;;;;;;;;;2.00;1.50;;;;;16.91;49.57;101255.28;5019398;28;45213;-59
2022/05/12 03:39:35;;;;;;;;;2.25;2.25;;;;;16.93;49.42;101247.25;5021512;28;45777;-59
2022/05/12 03:42:01;;;;;;;;;2.50;1.00;;;;;16.89;49.85;101252.72;5019170;28;45637;-59
2022/05/12 03:47:12;;;;;;;;;6.75;2.00;;;;;16.86;49.47;101258.13;5024501;28;45312;-59
2022/05/12 03:49:38;;;;;;;;;2.00;2.00;;;;;16.78;49.77;101249.63;5027473;28;46434;-60
2022/05/12 03:52:04;;;;;;;;;4.75;3.00;;;;;16.75;49.66;101257.72;5033129;28;45583;-60
2022/05/12 03:54:29;;;;;;;;;6.25;3.00;;;;;16.75;49.63;101248.91;5041557;28;45258;-60
2022/05/12 03:56:54;;;;;;;;;5.25;1.50;;;;;16.75;49.55;101259.47;5039133;28;64035;-60
2022/05/12 03:59:20;;;;;;;;;5.25;2.00;;;;;16.73;50.04;101253.41;5032577;28;65093;-61
2022/05/12 04:01:45;;;;;;;;;9.75;2.50;;;;;16.69;50.19;101260.63;5022019;28;66829;-59
2022/05/12 04:04:10;;;;;;;;;2.00;2.00;;;;;16.67;49.54;101265.97;5037553;28;69942;-60
2022/05/12 04:06:36;;;;;;;;;6.00;2.00;;;;;16.62;50.19;101267.09;5030369;28;65722;-60
2022/05/12 04:09:01;;;;;;;;;4.50;2.00;;;;;16.57;50.30;101266.44;5039776;28;45374;-59
2022/05/12 04:11:27;;;;;;;;;2.25;1.50;;;;;16.52;50.12;101270.16;5038139;28;50600;-59
2022/05/12 04:13:52;;;;;;;;;4.00;2.50;;;;;16.49;49.98;101269.44;5041309;28;45566;-59
2022/05/12 04:16:19;;;;;;;;;4.00;1.75;;;;;16.49;50.33;101275.56;5037969;28;68270;-59
2022/05/12 04:18:45;;;;;;;;;3.50;1.25;;;;;16.47;50.64;101273.91;5033348;28;45573;-59
2022/05/12 04:21:10;;;;;;;;;2.00;2.00;;;;;16.43;50.31;101274.97;5036248;28;45487;-59
2022/05/12 04:23:36;;;;;;;;;3.25;2.00;;;;;16.39;51.00;101282.16;5023009;28;46286;-60
2022/05/12 04:26:01;;;;;;;;;4.25;1.25;;;;;16.32;51.01;101284.22;5027758;28;54055;-60
2022/05/12 04:28:26;;;;;;;;;3.50;2.00;;;;;16.29;50.75;101279.06;5020452;28;45492;-60
2022/05/12 04:30:52;;;;;;;;;4.00;3.00;;;;;16.30;50.96;101288.69;5030435;28;45471;-60
2022/05/12 04:36:01;;;;;;;;;4.50;2.00;;;;;16.24;51.15;101285.47;5037080;28;45755;-59
2022/05/12 04:38:27;;;;;;;;;4.00;2.50;;;;;16.25;50.96;101289.81;5037013;28;45581;-60
2022/05/12 04:40:52;;;;;;;;;3.25;1.50;;;;;16.23;51.49;101296.94;5030581;28;45331;-60
2022/05/12 04:43:18;;;;;;;;;4.50;2.50;;;;;16.19;50.98;101298.00;5026360;28;46913;-60
2022/05/12 04:45:43;;;;;;;;;5.00;3.25;;;;;16.18;51.19;101301.56;5021457;28;53272;-60
2022/05/12 04:48:09;;;;;;;;;4.00;3.25;;;;;16.16;51.06;101301.63;5021260;28;56122;-61
2022/05/12 04:50:40;;;;;;;;;3.50;3.00;;;;;16.18;50.54;101312.97;5037537;28;45592;-60
2022/05/12 04:53:05;;;;;;;;;4.00;4.00;;;;;16.19;51.14;101312.06;5039400;28;46078;-60
2022/05/12 04:55:33;;;;;;;;;9.00;4.50;;;;;16.20;51.66;101307.63;5026799;28;45497;-61
2022/05/12 04:57:59;;;;;;;;;8.00;5.00;;;;;16.21;50.85;101310.19;5030156;28;45245;-61
2022/05/12 05:00:31;;;;;;;;;8.25;5.50;;;;;16.25;51.96;101314.44;5028708;28;45289;-60
2022/05/12 05:02:57;;;;;;;;;6.75;3.25;;;;;16.22;51.46;101309.28;5039631;28;46192;-60
2022/05/12 05:05:23;;;;;;;;;6.75;3.75;;;;;16.26;51.54;101310.03;5040305;28;45270;-60
2022/05/12 05:07:48;;;;;;;;;5.00;3.75;;;;;16.29;51.12;101310.75;5034854;28;45225;-60
2022/05/12 05:10:14;;;;;;;;;2.00;1.00;;;;;16.31;51.35;101314.19;5024456;28;45461;-60
2022/05/12 05:12:41;;;;;;;;;5.75;2.50;;;;;16.32;51.64;101312.41;5032524;28;46144;-60
2022/05/12 05:15:07;;;;;;;;;5.00;3.00;;;;;16.33;51.59;101314.13;5040876;28;45164;-60
2022/05/12 05:17:35;;;;;;;;;5.00;3.75;;;;;16.31;51.34;101318.63;5040149;28;45400;-61
2022/05/12 05:20:03;;;;;;;;;5.00;4.00;;;;;16.27;51.50;101319.66;5028589;28;45489;-60
2022/05/12 05:22:29;;;;;;;;;8.00;4.00;;;;;16.28;51.27;101321.38;5020701;28;46421;-60
2022/05/12 05:24:55;;;;;;;;;5.00;2.50;;;;;16.31;51.58;101332.69;5037534;28;45392;-60
2022/05/12 05:27:20;;;;;;;;;4.00;3.00;;;;;16.32;51.38;101344.09;5026706;28;45483;-60
2022/05/12 05:29:45;;;;;;;;;7.00;3.50;;;;;16.29;51.45;101328.41;5028097;28;65043;-60
2022/05/12 05:32:12;;;;;;;;;4.25;2.50;;;;;16.33;51.51;101337.91;5037123;28;46745;-60
2022/05/12 05:34:37;;;;;;;;;5.25;2.75;;;;;16.38;51.27;101340.34;5024133;28;45817;-60
2022/05/12 05:37:03;;;;;;;;;4.00;3.00;;;;;16.42;51.11;101336.66;5027039;28;62969;-60
2022/05/12 05:39:28;;;;;;;;;4.00;4.00;;;;;16.46;51.57;101348.81;5027770;28;45370;-61
2022/05/12 05:42:00;;;;;;;;;5.00;3.00;;;;;16.47;51.13;101350.53;5024195;28;45975;-61
2022/05/12 05:44:28;;;;;;;;;7.25;3.75;;;;;16.45;51.71;101361.16;5020491;28;45758;-61
2022/05/12 05:46:54;;;;;;;;;3.75;3.00;;;;;16.47;51.35;101367.25;5033106;28;45521;-61
2022/05/12 05:49:19;;;;;;;;;4.75;4.00;;;;;16.46;51.64;101368.16;5037223;28;45625;-60
2022/05/12 05:54:31;;;;;;;;;16.50;10.00;;;;;16.51;50.76;101370.63;5039315;28;45353;-62
2022/05/12 05:56:57;;;;;;;;;8.00;5.00;;;;;16.53;50.96;101376.69;5039842;28;45918;-63
2022/05/12 05:59:23;;;;;;;;;4.00;3.75;;;;;16.52;50.60;101380.28;5027885;28;45459;-64
2022/05/12 06:01:49;;;;;;;;;11.25;5.00;;;;;16.52;50.66;101391.69;5020712;28;47006;-62
2022/05/12 06:04:15;;;;;;;;;3.50;3.00;;;;;16.52;50.98;101388.19;5029904;28;47052;-63
2022/05/12 06:06:42;;;;;;;;;5.25;5.00;;;;;16.51;50.84;101400.53;5037951;28;45485;-62
2022/05/12 06:09:07;;;;;;;;;6.00;4.25;;;;;16.50;50.66;101409.41;5025387;28;45585;-60
2022/05/12 06:11:32;;;;;;;;;17.75;13.25;;;;;16.49;50.86;101410.31;5036814;28;68911;-63
2022/05/12 06:13:58;;;;;;;;;8.00;5.25;;;;;16.51;50.82;101407.59;5037503;28;48307;-62
2022/05/12 06:16:23;;;;;;;;;10.75;6.00;;;;;16.52;50.48;101410.19;5027015;28;61642;-62
2022/05/12 06:18:50;;;;;;;;;8.25;5.00;;;;;16.52;50.72;101415.47;5024594;28;46254;-62
2022/05/12 06:21:16;;;;;;;;;6.00;3.25;;;;;16.52;50.75;101420.75;5031824;28;45455;-62
2022/05/12 06:23:42;;;;;;;;;6.00;4.00;;;;;16.51;50.56;101423.47;5029449;28;46086;-61
2022/05/12 06:26:13;;;;;;;;;2.75;1.75;;;;;16.55;50.82;101421.56;5034331;28;59803;-60
2022/05/12 06:28:40;;;;;;;;;3.00;3.00;;;;;16.57;50.84;101417.91;5020314;28;45416;-60
2022/05/12 06:31:06;;;;;;;;;6.75;4.00;;;;;16.60;50.44;101416.94;5029909;28;46074;-60
2022/05/12 06:33:33;;;;;;;;;4.25;3.00;;;;;16.64;50.64;101424.69;5034816;28;45765;-60
2022/05/12 06:36:01;;;;;;;;;5.25;4.50;;;;;16.65;50.10;101422.91;5027804;28;45540;-61
2022/05/12 06:38:26;;;;;;;;;7.00;4.50;;;;;16.65;50.14;101423.75;5031362;28;48828;-61
2022/05/12 06:40:53;;;;;;;;;5.50;3.50;;;;;16.68;49.97;101415.69;5030342;28;46228;-57
2022/05/12 06:43:18;;;;;;;;;3.75;3.00;;;;;16.73;49.17;101431.34;5032381;28;45797;-56
2022/05/12 06:45:44;;;;;;;;;3.25;2.50;;;;;16.73;49.03;101431.34;5022314;28;45931;-55
2022/05/12 06:48:09;;;;;;;;;4.50;3.00;;;;;16.78;49.59;101436.44;5025772;28;58087;-55
2022/05/12 06:50:35;;;;;;;;;7.00;3.50;;;;;16.83;49.35;101431.84;5024881;28;46267;-56
2022/05/12 06:53:00;;;;;;;;;4.00;3.25;;;;;16.88;49.41;101430.75;5023597;28;45411;-56
2022/05/12 06:55:29;;;;;;;;;3.50;3.00;;;;;16.94;49.04;101434.06;5029877;28;45398;-56
2022/05/12 06:57:55;;;;;;;;;4.00;4.00;;;;;17.02;49.11;101422.22;5026946;28;45367;-56
2022/05/12 07:00:20;;;;;;;;;4.00;1.75;;;;;17.07;48.73;101417.59;5037389;28;46037;-57
2022/05/12 07:02:47;;;;;;;;;6.50;3.00;;;;;17.13;48.15;101428.84;5030702;28;45309;-56
2022/05/12 07:05:18;;;;;;;;;4.00;3.00;;;;;17.17;47.97;101433.06;5026351;28;45391;-56
2022/05/12 07:07:44;;;;;;;;;5.00;3.00;;;;;17.20;47.72;101431.16;5039043;28;45507;-56
2022/05/12 07:10:10;;;;;;;;;3.00;1.75;;;;;17.25;47.95;101437.09;5035705;28;67582;-57
2022/05/12 07:12:36;;;;;;;;;3.50;2.00;;;;;17.24;47.40;101429.22;5030706;28;45245;-55
2022/05/12 07:15:01;;;;;;;;;4.00;2.00;;;;;17.26;47.37;101433.53;5025377;28;45313;-55
2022/05/12 07:17:27;;;;;;;;;4.50;2.00;;;;;17.30;47.90;101434.25;5033426;28;46345;-56
2022/05/12 07:26:35;;;;;;;;;5.75;3.50;;;;;17.36;47.96;101441.91;5022440;28;47007;-56
2022/05/12 07:28:10;;;;;;;;;8.00;3.00;;;;;17.64;47.22;101432.75;5025780;28;45368;-56
2022/05/12 07:31:00;;;;;;;;;4.25;3.00;;;;;17.72;47.31;101424.44;5041319;28;68045;-56
2022/05/12 07:33:21;;;;;;;;;4.25;4.00;;;;;17.82;47.12;101423.09;5042330;28;45246;-56
2022/05/12 07:35:46;;;;;;;;;5.25;2.00;;;;;17.89;46.84;101419.28;5041831;28;64594;-56
2022/05/12 07:38:12;;;;;;;;;5.25;2.25;;;;;17.97;46.69;101421.53;5041492;28;64961;-56
2022/05/12 07:40:37;;;;;;;;;6.00;3.00;;;;;18.03;46.32;101427.41;5042107;28;46159;-55
2022/05/12 07:43:02;;;;;;;;;5.00;4.00;;;;;18.10;45.98;101430.66;5041364;28;65172;-56
2022/05/12 07:45:28;;;;;;;;;6.75;4.50;;;;;18.16;46.19;101429.50;5035940;28;60511;-56
2022/05/12 07:47:53;;;;;;;;;6.75;4.00;;;;;18.24;45.91;101435.28;5035548;28;45304;-56
2022/05/12 07:50:19;;;;;;;;;3.50;3.00;;;;;18.31;45.85;101435.81;5041684;28;70530;-56
2022/05/12 07:52:44;;;;;;;;;4.00;1.50;;;;;18.37;45.71;101424.94;5041596;28;66316;-56
2022/05/12 07:55:09;;;;;;;;;5.50;2.25;;;;;18.40;45.33;101433.59;5042567;28;45559;-56
2022/05/12 07:57:36;;;;;;;;;7.00;4.00;;;;;18.45;45.25;101432.50;5042148;28;45445;-56
2022/05/12 08:00:02;;;;;;;;;2.50;2.50;;;;;18.51;45.02;101432.22;5041101;28;45289;-56
2022/05/12 08:02:28;;;;;;;;;3.00;3.00;;;;;18.57;45.03;101434.56;5037748;28;45155;-56
2022/05/12 08:04:53;;;;;;;;;3.50;3.50;;;;;18.60;44.89;101429.97;5038179;28;61752;-55
2022/05/12 08:07:18;;;;;;;;;9.50;8.25;;;;;18.63;44.54;101436.03;5024800;28;65298;-55
2022/05/12 08:09:44;;;;;;;;;11.75;5.00;;;;;18.69;44.49;101430.44;5040960;28;68487;-56
2022/05/12 08:12:10;;;;;;;;;4.50;3.75;;;;;18.73;44.52;101439.97;5041917;28;45384;-57
2022/05/12 08:14:35;;;;;;;;;6.00;2.00;;;;;18.71;44.39;101429.44;5042519;28;45485;-56
2022/05/12 08:17:01;;;;;;;;;6.75;3.00;;;;;18.77;44.19;101439.75;5041372;28;59517;-56
2022/05/12 08:19:26;;;;;;;;;4.75;2.25;;;;;18.76;44.47;101445.13;5036596;28;46007;-55
2022/05/12 08:21:52;;;;;;;;;2.75;2.00;;;;;18.78;44.32;101451.19;5038153;28;45398;-56
2022/05/12 08:24:18;;;;;;;;;3.50;3.00;;;;;18.81;44.16;101455.50;5042255;28;45364;-55
2022/05/12 08:26:43;;;;;;;;;3.00;3.00;;;;;18.86;44.01;101450.88;5025961;28;45530;-56
2022/05/12 08:29:08;;;;;;;;;3.50;3.00;;;;;18.97;43.65;101456.47;5022135;28;46007;-55
2022/05/12 08:31:34;;;;;;;;;4.75;3.00;;;;;19.03;43.25;101455.31;5019861;28;45253;-56
2022/05/12 08:34:00;;;;;;;;;6.25;2.50;;;;;19.08;42.96;101451.47;5022267;28;45319;-56
2022/05/12 08:36:27;;;;;;;;;5.25;3.25;;;;;19.16;43.25;101451.09;5026606;28;45261;-56
2022/05/12 08:38:53;;;;;;;;;3.50;3.25;;;;;19.23;42.89;101456.91;5041815;28;45427;-56
2022/05/12 08:41:37;;;;;;;;;4.00;2.25;;;;;19.35;43.13;101454.50;5041688;28;45154;-55
2022/05/12 08:44:08;;;;;;;;;5.00;4.00;;;;;19.48;42.62;101448.56;5041945;28;45296;-56
2022/05/12 08:46:36;;;;;;;;;5.50;3.00;;;;;19.60;42.34;101444.38;5040416;28;45387;-56
2022/05/12 08:49:08;;;;;;;;;9.00;2.00;;;;;19.70;42.04;101453.56;5041382;28;46258;-56
2022/05/12 08:51:35;;;;;;;;;3.50;1.50;;;;;19.79;41.72;101452.25;5040802;28;45625;-55
2022/05/12 08:54:05;;;;;;;;;1.75;1.75;;;;;19.84;41.69;101448.38;5032043;28;45364;-56
2022/05/12 08:56:30;;;;;;;;;4.25;2.25;;;;;19.99;41.41;101441.38;5040210;28;45329;-56
2022/05/12 08:58:57;;;;;;;;;5.50;2.00;;;;;20.14;40.56;101446.78;5041320;28;46289;-56
2022/05/12 09:01:23;;;;;;;;;5.50;2.50;;;;;20.23;40.74;101451.59;5040863;28;59976;-56
2022/05/12 09:04:14;;;;;;;;;3.25;2.00;;;;;20.37;40.84;101451.66;5036650;28;45333;-56
2022/05/12 09:07:37;;;;;;;;;3.25;3.00;;;;;20.45;40.13;101448.56;5021458;28;45281;-56
2022/05/12 09:10:28;;;;;;;;;2.00;2.00;;;;;20.55;40.35;101440.91;5000950;28;46397;-56
2022/05/12 09:13:14;;;;;;;;;3.00;3.00;;;;;20.78;40.07;101432.47;5040173;28;45820;-56
2022/05/12 09:16:14;;;;;;;;;3.25;1.75;;;;;20.98;39.78;101433.97;5041126;28;45241;-56
2022/05/12 09:18:40;;;;;;;;;1.75;1.50;;;;;21.23;39.01;101443.16;5041428;28;45503;-56
2022/05/12 09:21:09;;;;;;;;;4.25;1.50;;;;;21.30;38.93;101439.16;5040980;28;45971;-56
2022/05/12 09:23:35;;;;;;;;;4.00;2.00;;;;;21.47;38.57;101442.63;5041266;28;45456;-56
2022/05/12 09:26:40;;;;;;;;;1.25;1.00;;;;;21.83;38.54;101441.25;5037699;28;45419;-56
2022/05/12 09:29:14;;;;;;;;;5.00;2.50;;;;;22.16;38.24;101444.44;5021163;28;45225;-56
2022/05/12 09:31:41;;;;;;;;;3.50;2.75;;;;;22.47;37.98;101449.59;5021046;28;45380;-56
2022/05/12 09:34:29;;;;;;;;;2.00;1.25;;;;;22.54;37.55;101435.78;5021108;28;45464;-56
2022/05/12 09:36:55;;;;;;;;;3.00;1.75;;;;;22.62;37.30;101445.94;5021125;28;45285;-56
2022/05/12 09:39:35;;;;;;;;;5.00;1.25;;;;;22.62;37.73;101447.75;5020988;28;45329;-56
2022/05/12 09:42:01;;;;;;;;;4.50;2.75;;;;;22.61;37.46;101436.25;5019551;28;46155;-56
2022/05/12 09:44:30;;;;;;;;;2.50;2.00;;;;;22.51;37.51;101443.13;5026205;28;45309;-56
2022/05/12 09:47:02;;;;;;;;;2.50;2.00;;;;;22.44;36.87;101431.16;5040577;28;45348;-56
2022/05/12 09:49:38;;;;;;;;;3.25;2.00;;;;;22.39;37.92;101433.28;5040592;28;45285;-56
2022/05/12 09:52:27;;;;;;;;;3.00;2.50;;;;;22.37;36.96;101423.56;5040652;28;46228;-56
2022/05/12 09:55:23;;;;;;;;;6.00;2.50;;;;;22.70;37.04;101429.41;5040555;28;45356;-56
2022/05/12 09:57:54;;;;;;;;;3.75;3.00;;;;;22.62;36.24;101434.41;5040797;28;45438;-56
2022/05/12 10:00:35;;;;;;;;;3.75;3.00;;;;;22.45;36.91;101436.41;5040323;28;45308;-56
2022/05/12 10:09:26;;;;;;;;;6.00;3.00;;;;;24.97;34.22;101419.47;5020801;28;45323;-56
2022/05/12 10:12:07;;;;;;;;;6.00;2.00;;;;;25.09;33.42;101423.00;5027764;28;45294;-57
2022/05/12 10:15:00;;;;;;;;;1.00;1.00;;;;;26.45;33.12;101410.34;5040368;28;46173;-57
2022/05/12 10:17:34;;;;;;;;;2.00;2.00;;;;;28.26;30.74;101419.75;5040485;28;45225;-56
2022/05/12 10:20:04;;;;;;;;;3.75;2.00;;;;;29.67;29.34;101416.41;5021151;28;45301;-55
2022/05/12 10:22:33;;;;;;;;;2.25;1.00;;;;;31.03;28.37;101414.56;5019006;28;45606;-55
2022/05/12 10:25:17;;;;;;;;;2.75;1.00;;;;;32.05;25.26;101410.16;5021164;28;45423;-55
2022/05/12 10:27:46;;;;;;;;;2.25;2.00;;;;;32.89;26.67;101408.16;5022062;28;45703;-55
2022/05/12 10:30:19;;;;;;;;;12.25;10.00;;;;;33.67;25.42;101408.47;5020244;28;45308;-54
2022/05/12 10:32:56;;;;;;;;;2.75;2.00;;;;;34.09;23.78;101406.34;5020099;28;45239;-55
2022/05/12 10:36:04;;;;;;;;;2.00;1.75;;;;;33.90;24.08;101410.38;5024280;28;45360;-56
2022/05/12 10:38:35;;;;;;;;;1.00;0.00;;;;;33.69;23.74;101402.88;4997932;28;45794;-56
2022/05/12 10:41:17;;;;;;;;;3.25;1.00;;;;;33.54;23.62;101406.31;4991222;28;45384;-56
2022/05/12 10:44:01;;;;;;;;;0.00;0.00;;;;;33.62;24.42;101410.84;5004782;28;45542;-55
2022/05/12 10:46:51;;;;;;;;;2.00;2.00;;;;;33.67;23.11;101412.03;5019963;28;45387;-56
2022/05/12 10:49:23;;;;;;;;;4.25;1.50;;;;;34.02;22.85;101404.38;5028785;28;45229;-56
2022/05/12 10:52:05;;;;;;;;;4.50;1.25;;;;;33.40;23.06;101407.88;5039653;28;45594;-56
2022/05/12 10:54:39;;;;;;;;;2.50;2.50;;;;;32.34;24.23;101411.53;5019531;28;45359;-55
2022/05/12 10:57:25;;;;;;;;;2.00;2.00;;;;;31.25;24.52;101399.63;5019606;28;45455;-56
2022/05/12 11:00:08;;;;;;;;;5.00;1.25;;;;;30.14;24.99;101400.09;5019678;28;45300;-56
2022/05/12 11:02:47;;;;;;;;;4.00;3.00;;;;;29.12;25.86;101403.69;5027691;28;45395;-56
2022/05/12 11:05:21;;;;;;;;;3.75;1.00;;;;;28.28;26.80;101405.19;5037826;28;45588;-56
2022/05/12 11:08:14;;;;;;;;;5.25;2.25;;;;;28.23;27.18;101399.38;5039594;28;45450;-56
2022/05/12 11:10:50;;;;;;;;;1.50;1.00;;;;;27.75;26.90;101392.06;5034988;28;45347;-55
2022/05/12 11:13:34;;;;;;;;;2.25;2.00;;;;;27.09;27.52;101404.91;5038520;28;45346;-55
2022/05/12 11:16:15;;;;;;;;;5.00;2.00;;;;;26.44;28.58;101395.25;5039421;28;45345;-55
2022/05/12 11:18:49;;;;;;;;;1.25;1.25;;;;;26.46;28.98;101401.34;5038747;28;45429;-55
2022/05/12 11:21:17;;;;;;;;;5.25;2.75;;;;;27.17;28.69;101403.38;5039588;28;45598;-55
2022/05/12 11:23:53;;;;;;;;;3.00;2.00;;;;;27.05;28.43;101389.19;5039778;28;45202;-56
2022/05/12 11:26:31;;;;;;;;;5.50;2.00;;;;;26.59;28.79;101388.56;5035686;28;45631;-55
2022/05/12 11:29:51;;;;;;;;;4.00;3.50;;;;;26.20;29.27;101390.94;5024605;28;46222;-55
2022/05/12 11:32:22;;;;;;;;;5.00;3.00;;;;;26.55;29.37;101386.28;5032449;28;45282;-55
2022/05/12 11:34:51;;;;;;;;;4.00;2.75;;;;;26.55;28.96;101400.56;5037470;28;45380;-55
2022/05/12 11:37:35;;;;;;;;;6.75;4.00;;;;;26.16;29.54;101389.50;5017788;28;45621;-55
2022/05/12 11:40:05;;;;;;;;;4.50;4.00;;;;;25.82;29.68;101394.91;5019369;28;46085;-56
2022/05/12 11:45:50;;;;;;;;;6.00;4.25;;;;;25.79;30.03;101386.25;5022645;28;45356;-56
2022/05/12 11:48:33;;;;;;;;;5.50;4.50;;;;;25.81;29.86;101400.38;5018643;28;45376;-56
2022/05/12 11:51:24;;;;;;;;;6.75;4.00;;;;;25.60;29.90;101392.25;5026576;28;47190;-54
2022/05/12 11:53:57;;;;;;;;;2.75;2.75;;;;;25.49;29.78;101404.66;5037918;28;45360;-56
2022/05/12 11:56:53;;;;;;;;;2.00;1.50;;;;;25.77;29.76;101406.00;5037856;28;45225;-55
2022/05/12 11:59:26;;;;;;;;;0.00;0.00;;;;;26.21;29.62;101400.69;5025690;28;45196;-54